Ana Sayfa
METAR-TAF:

METAR-TAF

Havaalanları :

Balıkesir Merkez Havalimanı

Balıkesir, Türkiye

Enlem: 39-37N, Boylam: 027-55E, yükseklik: 101 m

Güncel hava durumu gözlemi

Rapor saat 23:50 UTC de 59 dakika önce yapıldı.
Sakin rüzgar
Sıcaklık 3°C
Nem 100%
Basınç 1013 hPa
Görüş mesafesi: 4000 m
3500 ft yükseklikte parçalı bulutlu
10000 ft yükseklikte parçalı çok bulutlu
Pus

METAR: LTBF 112350Z 00000KT 4000 BR SCT035 BKN100 03/03 Q1013 NOSIG

Saat: 03:49 (00:49 UTC)

Tahmin

Rapor saat 22:40 UTC de 2 saat ve 9 dakika önce yapıldı.
Ayın 12'si saat 00 UTC'den ayın 12'si saat 09 UTC'ye kadar geçerli Tahmin
Rüzgar değişken yönden 2 kt
Görüş mesafesi 10 km veya daha fazla
3500 ft yükseklikte parçalı bulutlu
10000 ft yükseklikte parçalı çok bulutlu
hafif sağanak yağmurlar
Geçici
ayın 12'si saat 00 UTC'den ayın 12'si saat 03 UTC'ye kadar
Görüş mesafesi: 4000 m
Pus

TAF: LTBF 112240Z 1200/1209 VRB02KT 9999 -SHRA SCT035 BKN100 TEMPO 1200/1203 4000 BR

4.000'den fazla havaalanı için hava durumu gözlemleri ve tahminleri (METAR ve TAF raporları).

Kullanılabilir istasyonlar harita üzerinde sarı ve kırmızı noktalarla gösterilir.

İstasyonun adını görmek için fareyi noktanın üzerinde gezdirin.

Sonrasında hava gözlem ve tahminlerini görmek için tıklayın.

Haritayı değiştirmek için: yaklaştırmak için siyah artı işaretli yeşil düğmeye ve uzaklaştırmak için de eksi işaretli düğmeye hızla tıklayın; bitişik haritalar için yeşil okları kullanın.


METAR-TAF: